Time;durP1;ratioP1;P1;durP2;ratioP2;P2;SDS_P1;SDS_P2;PMS_P1;PMS_P2;Temp;Humidity;BMP_temperature;BMP_pressure;BME280_temperature;BME280_humidity;BME280_pressure;Samples;Min_cycle;Max_cycle;Signal;HPM_P1;HPM_P2
2022/07/05 00:00:51;;;;;;;;;;;;;;;;;;5015165;28;20249;-75
2022/07/05 00:03:17;;;;;;;;;;;;;;;;;;5014966;28;19917;-75
2022/07/05 00:05:43;;;;;;;;;;;;;;;;;;5015119;28;19996;-74
2022/07/05 00:08:09;;;;;;;;;;;;;;;;;;5015541;28;19936;-74
2022/07/05 00:10:35;;;;;;;;;;;;;;;;;;5015650;28;19909;-75
2022/07/05 00:13:01;;;;;;;;;;;;;;;;;;5015043;28;20364;-74
2022/07/05 00:15:27;;;;;;;;;;;;;;;;;;5015874;28;20425;-75
2022/07/05 00:17:53;;;;;;;;;;;;;;;;;;5015179;28;20315;-75
2022/07/05 00:20:19;;;;;;;;;;;;;;;;;;5015309;28;19999;-75
2022/07/05 00:22:45;;;;;;;;;;;;;;;;;;5014874;28;19913;-75
2022/07/05 00:25:11;;;;;;;;;;;;;;;;;;5015515;28;19913;-75
2022/07/05 00:27:37;;;;;;;;;;;;;;;;;;5015005;28;19910;-75
2022/07/05 00:30:03;;;;;;;;;;;;;;;;;;5014908;28;20375;-75
2022/07/05 00:32:29;;;;;;;;;;;;;;;;;;5014846;28;19917;-74
2022/07/05 00:34:55;;;;;;;;;;;;;;;;;;5013838;28;19914;-75
2022/07/05 00:37:21;;;;;;;;;;;;;;;;;;5013577;28;19909;-75
2022/07/05 00:39:47;;;;;;;;;;;;;;;;;;5015112;28;19909;-75
2022/07/05 00:42:13;;;;;;;;;;;;;;;;;;5014930;28;19963;-74
2022/07/05 00:44:41;;;;;;;;;;;;;;;;;;5015322;28;19964;-74
2022/07/05 00:47:06;;;;;;;;;;;;;;;;;;5014658;28;20284;-75
2022/07/05 00:49:32;;;;;;;;;;;;;;;;;;5014578;28;19913;-75
2022/07/05 00:51:58;;;;;;;;;;;;;;;;;;5014697;28;20245;-75
2022/07/05 00:54:24;;;;;;;;;;;;;;;;;;5014921;28;19983;-75
2022/07/05 00:56:50;;;;;;;;;;;;;;;;;;5017520;28;19910;-74
2022/07/05 00:59:16;;;;;;;;;;;;;;;;;;5018257;28;19909;-75
2022/07/05 01:01:42;;;;;;;;;;;;;;;;;;5017947;28;19943;-75
2022/07/05 01:04:08;;;;;;;;;;;;;;;;;;5018175;28;19913;-75
2022/07/05 01:06:34;;;;;;;;;;;;;;;;;;5018287;28;19910;-74
2022/07/05 01:09:00;;;;;;;;;;;;;;;;;;5017804;28;19916;-75
2022/07/05 01:11:26;;;;;;;;;;;;;;;;;;5018270;28;19910;-74
2022/07/05 01:13:52;;;;;;;;;;;;;;;;;;5017887;28;19917;-75
2022/07/05 01:16:18;;;;;;;;;;;;;;;;;;5018618;28;19909;-75
2022/07/05 01:18:44;;;;;;;;;;;;;;;;;;5017658;28;20387;-75
2022/07/05 01:21:10;;;;;;;;;;;;;;;;;;5017759;28;20242;-75
2022/07/05 01:23:36;;;;;;;;;;;;;;;;;;5017761;28;19964;-75
2022/07/05 01:26:02;;;;;;;;;;;;;;;;;;5018378;28;19913;-75
2022/07/05 01:28:28;;;;;;;;;;;;;;;;;;5017361;28;19996;-75
2022/07/05 01:30:54;;;;;;;;;;;;;;;;;;5017373;28;19916;-75
2022/07/05 01:33:20;;;;;;;;;;;;;;;;;;5017206;28;19913;-75
2022/07/05 01:35:46;;;;;;;;;;;;;;;;;;5017256;28;20004;-74
2022/07/05 01:38:12;;;;;;;;;;;;;;;;;;5017669;28;19941;-75
2022/07/05 01:40:38;;;;;;;;;;;;;;;;;;5017501;28;19955;-74
2022/07/05 01:43:04;;;;;;;;;;;;;;;;;;5017384;28;19913;-75
2022/07/05 01:45:42;;;;;;;;;;;;;;;;;;5017081;28;19967;-75
2022/07/05 01:48:08;;;;;;;;;;;;;;;;;;5017668;28;19918;-75
2022/07/05 01:50:34;;;;;;;;;;;;;;;;;;5017860;28;19983;-74
2022/07/05 01:52:59;;;;;;;;;;;;;;;;;;5017261;28;19910;-75
2022/07/05 01:55:25;;;;;;;;;;;;;;;;;;5017228;28;19909;-75
2022/07/05 01:57:51;;;;;;;;;;;;;;;;;;5017641;28;20371;-74
2022/07/05 02:00:17;;;;;;;;;;;;;;;;;;5017396;28;19916;-75
2022/07/05 02:02:43;;;;;;;;;;;;;;;;;;5017068;28;19917;-75
2022/07/05 02:05:09;;;;;;;;;;;;;;;;;;5017297;28;19913;-75
2022/07/05 02:07:35;;;;;;;;;;;;;;;;;;5014551;28;19920;-75
2022/07/05 02:10:01;;;;;;;;;;;;;;;;;;5017200;28;19910;-75
2022/07/05 02:12:27;;;;;;;;;;;;;;;;;;5017148;28;20000;-75
2022/07/05 02:14:53;;;;;;;;;;;;;;;;;;5017155;28;20345;-75
2022/07/05 02:17:19;;;;;;;;;;;;;;;;;;5016873;28;20418;-75
2022/07/05 02:19:45;;;;;;;;;;;;;;;;;;5017095;28;19916;-75
2022/07/05 02:22:12;;;;;;;;;;;;;;;;;;5016761;28;19913;-75
2022/07/05 02:24:38;;;;;;;;;;;;;;;;;;5016646;28;19920;-75
2022/07/05 02:27:04;;;;;;;;;;;;;;;;;;5017082;28;19910;-75
2022/07/05 02:29:30;;;;;;;;;;;;;;;;;;5016893;28;19909;-75
2022/07/05 02:31:56;;;;;;;;;;;;;;;;;;5017037;28;20409;-75
2022/07/05 02:34:22;;;;;;;;;;;;;;;;;;5016788;28;20391;-75
2022/07/05 02:36:48;;;;;;;;;;;;;;;;;;5016906;28;19909;-75
2022/07/05 02:39:14;;;;;;;;;;;;;;;;;;5016979;28;20237;-75
2022/07/05 02:41:40;;;;;;;;;;;;;;;;;;5016738;28;19913;-75
2022/07/05 02:44:06;;;;;;;;;;;;;;;;;;5016288;28;19967;-75
2022/07/05 02:46:32;;;;;;;;;;;;;;;;;;5016907;28;19945;-75
2022/07/05 02:48:57;;;;;;;;;;;;;;;;;;5016309;28;19917;-75
2022/07/05 02:51:23;;;;;;;;;;;;;;;;;;5016209;28;19963;-75
2022/07/05 02:53:49;;;;;;;;;;;;;;;;;;5016131;28;19913;-75
2022/07/05 02:56:16;;;;;;;;;;;;;;;;;;5016037;28;20378;-75
2022/07/05 02:58:42;;;;;;;;;;;;;;;;;;5016391;28;19909;-75
2022/07/05 03:01:08;;;;;;;;;;;;;;;;;;5015464;28;20285;-75
2022/07/05 03:03:34;;;;;;;;;;;;;;;;;;5015701;28;20007;-75
2022/07/05 03:05:59;;;;;;;;;;;;;;;;;;5016089;28;20001;-75
2022/07/05 03:08:25;;;;;;;;;;;;;;;;;;5015565;28;19949;-75
2022/07/05 03:10:51;;;;;;;;;;;;;;;;;;5016088;28;19964;-75
2022/07/05 03:13:17;;;;;;;;;;;;;;;;;;5015470;28;19913;-74
2022/07/05 03:15:43;;;;;;;;;;;;;;;;;;5014527;28;19920;-74
2022/07/05 03:18:09;;;;;;;;;;;;;;;;;;5015356;28;20353;-74
2022/07/05 03:20:35;;;;;;;;;;;;;;;;;;5015698;28;19948;-75
2022/07/05 03:23:01;;;;;;;;;;;;;;;;;;5015594;28;20287;-75
2022/07/05 03:25:27;;;;;;;;;;;;;;;;;;5015608;28;19913;-74
2022/07/05 03:27:53;;;;;;;;;;;;;;;;;;5015758;28;20048;-74
2022/07/05 03:30:19;;;;;;;;;;;;;;;;;;5016083;28;19909;-74
2022/07/05 03:32:45;;;;;;;;;;;;;;;;;;5014021;28;19910;-75
2022/07/05 03:35:11;;;;;;;;;;;;;;;;;;5015456;28;19963;-74
2022/07/05 03:37:37;;;;;;;;;;;;;;;;;;5016073;28;19996;-74
2022/07/05 03:40:03;;;;;;;;;;;;;;;;;;5015122;28;20399;-74
2022/07/05 03:42:29;;;;;;;;;;;;;;;;;;5015342;28;19917;-74
2022/07/05 03:44:55;;;;;;;;;;;;;;;;;;5015335;28;19914;-74
2022/07/05 03:47:21;;;;;;;;;;;;;;;;;;5015218;28;19917;-74
2022/07/05 03:49:47;;;;;;;;;;;;;;;;;;5015902;28;19910;-74
2022/07/05 03:52:13;;;;;;;;;;;;;;;;;;5015519;28;19920;-74
2022/07/05 03:54:39;;;;;;;;;;;;;;;;;;5015526;28;19941;-74
2022/07/05 03:57:05;;;;;;;;;;;;;;;;;;5015420;28;19916;-74
2022/07/05 03:59:31;;;;;;;;;;;;;;;;;;5015474;28;19910;-74
2022/07/05 04:01:56;;;;;;;;;;;;;;;;;;5015412;28;19913;-74
2022/07/05 04:04:22;;;;;;;;;;;;;;;;;;5015337;28;19964;-74
2022/07/05 04:06:48;;;;;;;;;;;;;;;;;;5015591;28;19909;-74
2022/07/05 04:09:14;;;;;;;;;;;;;;;;;;5015385;28;20336;-74
2022/07/05 04:11:40;;;;;;;;;;;;;;;;;;5015435;28;19948;-74
2022/07/05 04:14:08;;;;;;;;;;;;;;;;;;5015321;28;19909;-74
2022/07/05 04:16:34;;;;;;;;;;;;;;;;;;5015467;28;19956;-74
2022/07/05 04:19:00;;;;;;;;;;;;;;;;;;5015586;28;20354;-75
2022/07/05 04:21:26;;;;;;;;;;;;;;;;;;5013950;28;19913;-74
2022/07/05 04:23:52;;;;;;;;;;;;;;;;;;5015549;28;19920;-75
2022/07/05 04:26:18;;;;;;;;;;;;;;;;;;5014983;28;19941;-74
2022/07/05 04:28:44;;;;;;;;;;;;;;;;;;5015123;28;20245;-74
2022/07/05 04:31:10;;;;;;;;;;;;;;;;;;5017864;28;19916;-74
2022/07/05 04:33:36;;;;;;;;;;;;;;;;;;5019002;28;19909;-74
2022/07/05 04:36:02;;;;;;;;;;;;;;;;;;5019319;28;19936;-74
2022/07/05 04:38:29;;;;;;;;;;;;;;;;;;5018660;28;20051;-74
2022/07/05 04:40:55;;;;;;;;;;;;;;;;;;5018556;28;20332;-74
2022/07/05 04:43:21;;;;;;;;;;;;;;;;;;5018838;28;19913;-74
2022/07/05 04:45:46;;;;;;;;;;;;;;;;;;5018821;28;20332;-74
2022/07/05 04:48:12;;;;;;;;;;;;;;;;;;5018388;28;20387;-74
2022/07/05 04:50:38;;;;;;;;;;;;;;;;;;5018437;28;20339;-74
2022/07/05 04:53:04;;;;;;;;;;;;;;;;;;5018172;28;19917;-74
2022/07/05 04:55:30;;;;;;;;;;;;;;;;;;5018360;28;20379;-74
2022/07/05 04:57:56;;;;;;;;;;;;;;;;;;5018204;28;19945;-74
2022/07/05 05:00:22;;;;;;;;;;;;;;;;;;5018747;28;19909;-74
2022/07/05 05:02:48;;;;;;;;;;;;;;;;;;5017983;28;20335;-74
2022/07/05 05:05:14;;;;;;;;;;;;;;;;;;5018411;28;19913;-74
2022/07/05 05:07:40;;;;;;;;;;;;;;;;;;5017694;28;19964;-74
2022/07/05 05:10:06;;;;;;;;;;;;;;;;;;5017771;28;19916;-74
2022/07/05 05:12:32;;;;;;;;;;;;;;;;;;5017992;28;19909;-74
2022/07/05 05:14:58;;;;;;;;;;;;;;;;;;5017705;28;19913;-75
2022/07/05 05:17:24;;;;;;;;;;;;;;;;;;5017485;28;20008;-75
2022/07/05 05:19:50;;;;;;;;;;;;;;;;;;5018441;28;20007;-74
2022/07/05 05:22:16;;;;;;;;;;;;;;;;;;5022497;28;19913;-75
2022/07/05 05:24:42;;;;;;;;;;;;;;;;;;5036605;28;19919;-75
2022/07/05 05:27:08;;;;;;;;;;;;;;;;;;5033979;28;19952;-75
2022/07/05 05:29:34;;;;;;;;;;;;;;;;;;5025593;28;20015;-75
2022/07/05 05:32:00;;;;;;;;;;;;;;;;;;5036606;28;19913;-72
2022/07/05 05:34:27;;;;;;;;;;;;;;;;;;5035087;28;20264;-74
2022/07/05 05:36:53;;;;;;;;;;;;;;;;;;5027223;28;19917;-74
2022/07/05 05:39:19;;;;;;;;;;;;;;;;;;5024702;28;20324;-74
2022/07/05 05:41:46;;;;;;;;;;;;;;;;;;5025916;28;19913;-74
2022/07/05 05:44:12;;;;;;;;;;;;;;;;;;5026171;28;20276;-74
2022/07/05 05:46:37;;;;;;;;;;;;;;;;;;5025926;28;19914;-73
2022/07/05 05:49:03;;;;;;;;;;;;;;;;;;5016405;28;19921;-75
2022/07/05 05:51:30;;;;;;;;;;;;;;;;;;5029750;28;19916;-74
2022/07/05 05:53:56;;;;;;;;;;;;;;;;;;5035445;28;19909;-75
2022/07/05 05:56:22;;;;;;;;;;;;;;;;;;5029086;28;19909;-74
2022/07/05 05:58:48;;;;;;;;;;;;;;;;;;5035078;28;20352;-74
2022/07/05 06:01:14;;;;;;;;;;;;;;;;;;5045034;28;19909;-74
2022/07/05 06:03:40;;;;;;;;;;;;;;;;;;5035484;28;19920;-74
2022/07/05 06:06:06;;;;;;;;;;;;;;;;;;5034658;28;19909;-74
2022/07/05 06:08:32;;;;;;;;;;;;;;;;;;5028968;28;19956;-72
2022/07/05 06:10:58;;;;;;;;;;;;;;;;;;5033141;28;19915;-72
2022/07/05 06:13:24;;;;;;;;;;;;;;;;;;5034642;28;20386;-72
2022/07/05 06:15:50;;;;;;;;;;;;;;;;;;5035220;28;19988;-72
2022/07/05 06:18:16;;;;;;;;;;;;;;;;;;5035112;28;19963;-72
2022/07/05 06:20:42;;;;;;;;;;;;;;;;;;5035197;28;19913;-72
2022/07/05 06:23:08;;;;;;;;;;;;;;;;;;5034026;28;19920;-72
2022/07/05 06:25:34;;;;;;;;;;;;;;;;;;5024798;28;19920;-72
2022/07/05 06:28:00;;;;;;;;;;;;;;;;;;5034978;28;19995;-72
2022/07/05 06:30:26;;;;;;;;;;;;;;;;;;5031632;28;20051;-72
2022/07/05 06:32:52;;;;;;;;;;;;;;;;;;5033672;28;19940;-73
2022/07/05 06:35:18;;;;;;;;;;;;;;;;;;5030210;28;19982;-72
2022/07/05 06:37:44;;;;;;;;;;;;;;;;;;5033271;28;19917;-74
2022/07/05 06:40:10;;;;;;;;;;;;;;;;;;5033214;28;19996;-74
2022/07/05 06:42:36;;;;;;;;;;;;;;;;;;5030884;28;20066;-70
2022/07/05 06:45:02;;;;;;;;;;;;;;;;;;5032909;28;19920;-70
2022/07/05 06:47:28;;;;;;;;;;;;;;;;;;5035206;28;20379;-70
2022/07/05 06:49:54;;;;;;;;;;;;;;;;;;5035759;28;20003;-70
2022/07/05 06:52:20;;;;;;;;;;;;;;;;;;5036118;28;19970;-70
2022/07/05 06:54:46;;;;;;;;;;;;;;;;;;5035695;28;20308;-69
2022/07/05 06:57:12;;;;;;;;;;;;;;;;;;5018046;28;19913;-69
2022/07/05 06:59:38;;;;;;;;;;;;;;;;;;5035819;28;19909;-69
2022/07/05 07:02:05;;;;;;;;;;;;;;;;;;5035780;28;19925;-69
2022/07/05 07:04:31;;;;;;;;;;;;;;;;;;5036021;28;19943;-69
2022/07/05 07:06:56;;;;;;;;;;;;;;;;;;5036381;28;20336;-69
2022/07/05 07:09:23;;;;;;;;;;;;;;;;;;5035929;28;19909;-69
2022/07/05 07:11:49;;;;;;;;;;;;;;;;;;5035543;28;20003;-69
2022/07/05 07:14:15;;;;;;;;;;;;;;;;;;5035703;28;20011;-69
2022/07/05 07:16:42;;;;;;;;;;;;;;;;;;5036461;28;19913;-69
2022/07/05 07:19:08;;;;;;;;;;;;;;;;;;5035423;28;19959;-69
2022/07/05 07:21:34;;;;;;;;;;;;;;;;;;5035479;28;19952;-69
2022/07/05 07:24:00;;;;;;;;;;;;;;;;;;5035067;28;20348;-69
2022/07/05 07:26:26;;;;;;;;;;;;;;;;;;5034867;28;19909;-69
2022/07/05 07:28:52;;;;;;;;;;;;;;;;;;5034730;28;19935;-69
2022/07/05 07:31:18;;;;;;;;;;;;;;;;;;5035318;28;19935;-69
2022/07/05 07:33:44;;;;;;;;;;;;;;;;;;5035214;28;19909;-69
2022/07/05 07:36:10;;;;;;;;;;;;;;;;;;5035844;28;19909;-69
2022/07/05 07:38:36;;;;;;;;;;;;;;;;;;5035095;28;19948;-69
2022/07/05 07:41:02;;;;;;;;;;;;;;;;;;5035085;28;19909;-69
2022/07/05 07:43:28;;;;;;;;;;;;;;;;;;5035214;28;19967;-69
2022/07/05 07:45:54;;;;;;;;;;;;;;;;;;5035641;28;19917;-69
2022/07/05 07:48:20;;;;;;;;;;;;;;;;;;5034864;28;19917;-69
2022/07/05 07:50:46;;;;;;;;;;;;;;;;;;5034845;28;19909;-69
2022/07/05 07:53:12;;;;;;;;;;;;;;;;;;5034722;28;19912;-69
2022/07/05 07:55:38;;;;;;;;;;;;;;;;;;5034623;28;19909;-69
2022/07/05 07:58:05;;;;;;;;;;;;;;;;;;5035084;28;19913;-69
2022/07/05 08:00:31;;;;;;;;;;;;;;;;;;5034879;28;19943;-69
2022/07/05 08:02:58;;;;;;;;;;;;;;;;;;5034449;28;20390;-69
2022/07/05 08:05:24;;;;;;;;;;;;;;;;;;5037429;28;20012;-69
2022/07/05 08:07:51;;;;;;;;;;;;;;;;;;5039281;28;19909;-69
2022/07/05 08:10:17;;;;;;;;;;;;;;;;;;5039801;28;19936;-69
2022/07/05 08:12:43;;;;;;;;;;;;;;;;;;5038919;28;20344;-69
2022/07/05 08:15:09;;;;;;;;;;;;;;;;;;5039480;28;20398;-69
2022/07/05 08:17:35;;;;;;;;;;;;;;;;;;5038738;28;19909;-69
2022/07/05 08:22:46;;;;;;;;;;;;;;;;;;5038204;28;19970;-69
2022/07/05 08:25:14;;;;;;;;;;;;;;;;;;5038543;28;20011;-69
2022/07/05 08:27:39;;;;;;;;;;;;;;;;;;5038135;28;20325;-69
2022/07/05 08:30:06;;;;;;;;;;;;;;;;;;5038349;28;19913;-69
2022/07/05 08:32:32;;;;;;;;;;;;;;;;;;5038516;28;19909;-69
2022/07/05 08:34:58;;;;;;;;;;;;;;;;;;5038506;28;20344;-69
2022/07/05 08:37:24;;;;;;;;;;;;;;;;;;5038391;28;19920;-69
2022/07/05 08:39:50;;;;;;;;;;;;;;;;;;5038962;28;19909;-69
2022/07/05 08:42:16;;;;;;;;;;;;;;;;;;5038292;28;19913;-69
2022/07/05 08:44:42;;;;;;;;;;;;;;;;;;5038358;28;20439;-69
2022/07/05 08:47:08;;;;;;;;;;;;;;;;;;5038194;28;19917;-69
2022/07/05 08:49:34;;;;;;;;;;;;;;;;;;5038892;28;19939;-69
2022/07/05 08:52:02;;;;;;;;;;;;;;;;;;5038685;28;20327;-69
2022/07/05 08:54:28;;;;;;;;;;;;;;;;;;5038210;28;19917;-69
2022/07/05 08:56:54;;;;;;;;;;;;;;;;;;5038267;28;19909;-69
2022/07/05 08:59:20;;;;;;;;;;;;;;;;;;5039087;28;20051;-69
2022/07/05 09:01:47;;;;;;;;;;;;;;;;;;5038166;28;20348;-69
2022/07/05 09:04:13;;;;;;;;;;;;;;;;;;5038177;28;19913;-69
2022/07/05 09:06:39;;;;;;;;;;;;;;;;;;5038700;28;19959;-69
2022/07/05 09:09:05;;;;;;;;;;;;;;;;;;5037931;28;19909;-69
2022/07/05 09:11:30;;;;;;;;;;;;;;;;;;5037823;28;19909;-69
2022/07/05 09:13:56;;;;;;;;;;;;;;;;;;5038644;28;20004;-69
2022/07/05 09:16:22;;;;;;;;;;;;;;;;;;5037255;28;19920;-69
2022/07/05 09:18:48;;;;;;;;;;;;;;;;;;5038002;28;19909;-69
2022/07/05 09:21:14;;;;;;;;;;;;;;;;;;5038083;28;19917;-69
2022/07/05 09:23:41;;;;;;;;;;;;;;;;;;5038377;28;19920;-69
2022/07/05 09:26:07;;;;;;;;;;;;;;;;;;5038141;28;19909;-69
2022/07/05 09:28:33;;;;;;;;;;;;;;;;;;5037443;28;20419;-69
2022/07/05 09:30:58;;;;;;;;;;;;;;;;;;5038037;28;19913;-69
2022/07/05 09:33:24;;;;;;;;;;;;;;;;;;5037379;28;19984;-69
2022/07/05 09:35:50;;;;;;;;;;;;;;;;;;5019911;28;19916;-69
2022/07/05 09:38:16;;;;;;;;;;;;;;;;;;5037385;28;19909;-69
2022/07/05 09:40:42;;;;;;;;;;;;;;;;;;5037626;28;20271;-69
2022/07/05 09:43:08;;;;;;;;;;;;;;;;;;5037512;28;19983;-69
2022/07/05 09:45:34;;;;;;;;;;;;;;;;;;5037525;28;19913;-69
2022/07/05 09:48:00;;;;;;;;;;;;;;;;;;5037108;28;19944;-69
2022/07/05 09:50:26;;;;;;;;;;;;;;;;;;5037552;28;19938;-69
2022/07/05 09:52:52;;;;;;;;;;;;;;;;;;5037285;28;19955;-69
2022/07/05 09:55:19;;;;;;;;;;;;;;;;;;5037368;28;19909;-69
2022/07/05 09:57:46;;;;;;;;;;;;;;;;;;5037360;28;20305;-69
2022/07/05 10:00:14;;;;;;;;;;;;;;;;;;5037199;28;19967;-69
2022/07/05 10:02:40;;;;;;;;;;;;;;;;;;5036859;28;19913;-69
2022/07/05 10:05:06;;;;;;;;;;;;;;;;;;5037189;28;19913;-69
2022/07/05 10:07:32;;;;;;;;;;;;;;;;;;5037430;28;20340;-69
2022/07/05 10:09:58;;;;;;;;;;;;;;;;;;5037021;28;19909;-69
2022/07/05 10:12:24;;;;;;;;;;;;;;;;;;5037150;28;19913;-69
2022/07/05 10:14:50;;;;;;;;;;;;;;;;;;5019130;28;20009;-69
2022/07/05 10:17:15;;;;;;;;;;;;;;;;;;5037080;28;19916;-69
2022/07/05 10:19:41;;;;;;;;;;;;;;;;;;5036570;28;19909;-69
2022/07/05 10:22:07;;;;;;;;;;;;;;;;;;5037096;28;20015;-69
2022/07/05 10:24:33;;;;;;;;;;;;;;;;;;5036815;28;19924;-69
2022/07/05 10:26:59;;;;;;;;;;;;;;;;;;5037168;28;20344;-69
2022/07/05 10:29:25;;;;;;;;;;;;;;;;;;5035607;28;19915;-69
2022/07/05 10:31:51;;;;;;;;;;;;;;;;;;5036200;28;19909;-69
2022/07/05 10:34:17;;;;;;;;;;;;;;;;;;5036996;28;20340;-69
2022/07/05 10:36:43;;;;;;;;;;;;;;;;;;5035954;28;19913;-69
2022/07/05 10:39:09;;;;;;;;;;;;;;;;;;5036520;28;19916;-69
2022/07/05 10:41:35;;;;;;;;;;;;;;;;;;5036114;28;19980;-69
2022/07/05 10:44:01;;;;;;;;;;;;;;;;;;5036713;28;19922;-69
2022/07/05 10:46:27;;;;;;;;;;;;;;;;;;5035603;28;19909;-69
2022/07/05 10:48:53;;;;;;;;;;;;;;;;;;5036531;28;19921;-69
2022/07/05 10:51:19;;;;;;;;;;;;;;;;;;5036158;28;19972;-69
2022/07/05 10:53:45;;;;;;;;;;;;;;;;;;5035877;28;19913;-69
2022/07/05 10:56:11;;;;;;;;;;;;;;;;;;5035898;28;19913;-69
2022/07/05 10:58:37;;;;;;;;;;;;;;;;;;5035721;28;19955;-69
2022/07/05 11:01:03;;;;;;;;;;;;;;;;;;5035361;28;20364;-69
2022/07/05 11:03:29;;;;;;;;;;;;;;;;;;5035713;28;19917;-69
2022/07/05 11:05:55;;;;;;;;;;;;;;;;;;5035689;28;19920;-69
2022/07/05 11:08:21;;;;;;;;;;;;;;;;;;5035333;28;19909;-69
2022/07/05 11:10:47;;;;;;;;;;;;;;;;;;5035632;28;19994;-69
2022/07/05 11:13:13;;;;;;;;;;;;;;;;;;5035578;28;19909;-69
2022/07/05 11:15:39;;;;;;;;;;;;;;;;;;5018042;28;19915;-69
2022/07/05 11:18:05;;;;;;;;;;;;;;;;;;5034935;28;19948;-69
2022/07/05 11:20:31;;;;;;;;;;;;;;;;;;5035979;28;19941;-69
2022/07/05 11:22:57;;;;;;;;;;;;;;;;;;5035314;28;19975;-69
2022/07/05 11:25:23;;;;;;;;;;;;;;;;;;5035603;28;20368;-69
2022/07/05 11:27:49;;;;;;;;;;;;;;;;;;5035559;28;19913;-69
2022/07/05 11:30:15;;;;;;;;;;;;;;;;;;5035861;28;19909;-69
2022/07/05 11:32:41;;;;;;;;;;;;;;;;;;5034820;28;19955;-69
2022/07/05 11:35:07;;;;;;;;;;;;;;;;;;5035268;28;19909;-69
2022/07/05 11:37:34;;;;;;;;;;;;;;;;;;5035408;28;19916;-69
2022/07/05 11:40:00;;;;;;;;;;;;;;;;;;5035377;28;19935;-69
2022/07/05 11:42:26;;;;;;;;;;;;;;;;;;5035036;28;20348;-69
2022/07/05 11:44:52;;;;;;;;;;;;;;;;;;5035340;28;20358;-69
2022/07/05 11:47:18;;;;;;;;;;;;;;;;;;5034635;28;20433;-69
2022/07/05 11:49:44;;;;;;;;;;;;;;;;;;5035678;28;20008;-69
2022/07/05 11:52:10;;;;;;;;;;;;;;;;;;5035001;28;19913;-69
2022/07/05 11:54:36;;;;;;;;;;;;;;;;;;5034725;28;19909;-69
2022/07/05 11:57:02;;;;;;;;;;;;;;;;;;5034999;28;19948;-69
2022/07/05 11:59:28;;;;;;;;;;;;;;;;;;5035247;28;19939;-69
2022/07/05 12:01:54;;;;;;;;;;;;;;;;;;5034393;28;20356;-69
2022/07/05 12:04:20;;;;;;;;;;;;;;;;;;5034820;28;19919;-69
2022/07/05 12:06:48;;;;;;;;;;;;;;;;;;5035081;28;19948;-69
2022/07/05 12:09:16;;;;;;;;;;;;;;;;;;5034987;28;19920;-69
2022/07/05 12:14:26;;;;;;;;;;;;;;;;;;5034321;28;19958;-69
2022/07/05 12:16:52;;;;;;;;;;;;;;;;;;5034636;28;20015;-69
2022/07/05 12:19:18;;;;;;;;;;;;;;;;;;5034757;28;19909;-69
2022/07/05 12:21:44;;;;;;;;;;;;;;;;;;5034857;28;19920;-69
2022/07/05 12:24:10;;;;;;;;;;;;;;;;;;5034410;28;20000;-69
2022/07/05 12:26:36;;;;;;;;;;;;;;;;;;5035195;28;19958;-69
2022/07/05 12:29:02;;;;;;;;;;;;;;;;;;5034747;28;19916;-69
2022/07/05 12:31:28;;;;;;;;;;;;;;;;;;5034451;28;19909;-69
2022/07/05 12:33:54;;;;;;;;;;;;;;;;;;5034380;28;19917;-69
2022/07/05 12:36:20;;;;;;;;;;;;;;;;;;5035205;28;20408;-69
2022/07/05 12:38:46;;;;;;;;;;;;;;;;;;5034553;28;20008;-69
2022/07/05 12:41:12;;;;;;;;;;;;;;;;;;5035101;28;20340;-69
2022/07/05 12:43:38;;;;;;;;;;;;;;;;;;5034467;28;19920;-69
2022/07/05 12:46:04;;;;;;;;;;;;;;;;;;5034539;28;20399;-69
2022/07/05 12:48:30;;;;;;;;;;;;;;;;;;5033981;28;20012;-69
2022/07/05 12:50:56;;;;;;;;;;;;;;;;;;5034313;28;20008;-69
2022/07/05 12:58:51;;;;;;;;;;;;;;;;;;5037906;28;19963;-69
2022/07/05 13:01:17;;;;;;;;;;;;;;;;;;5037863;28;19962;-69
2022/07/05 13:03:43;;;;;;;;;;;;;;;;;;5037934;28;20000;-69
2022/07/05 13:06:09;;;;;;;;;;;;;;;;;;5038484;28;19909;-69
2022/07/05 13:08:35;;;;;;;;;;;;;;;;;;5037602;28;19916;-69
2022/07/05 13:11:01;;;;;;;;;;;;;;;;;;5037863;28;19909;-69
2022/07/05 13:13:27;;;;;;;;;;;;;;;;;;5037864;28;19952;-69
2022/07/05 13:15:53;;;;;;;;;;;;;;;;;;5037425;28;19915;-69
2022/07/05 13:18:19;;;;;;;;;;;;;;;;;;5037313;28;19909;-69
2022/07/05 13:20:45;;;;;;;;;;;;;;;;;;5037717;28;19951;-69
2022/07/05 13:23:10;;;;;;;;;;;;;;;;;;5037613;28;20008;-69
2022/07/05 13:25:37;;;;;;;;;;;;;;;;;;5037624;28;19917;-69
2022/07/05 13:28:02;;;;;;;;;;;;;;;;;;5037201;28;19909;-69
2022/07/05 13:30:28;;;;;;;;;;;;;;;;;;5037538;28;19916;-69
2022/07/05 13:32:54;;;;;;;;;;;;;;;;;;5037317;28;19958;-69
2022/07/05 13:35:20;;;;;;;;;;;;;;;;;;5037476;28;19916;-69
2022/07/05 13:37:46;;;;;;;;;;;;;;;;;;5037282;28;19909;-69
2022/07/05 13:40:12;;;;;;;;;;;;;;;;;;5037626;28;19913;-69
2022/07/05 13:42:38;;;;;;;;;;;;;;;;;;5037148;28;19949;-69
2022/07/05 13:45:04;;;;;;;;;;;;;;;;;;5037306;28;19971;-69
2022/07/05 13:47:30;;;;;;;;;;;;;;;;;;5037384;28;19917;-69
2022/07/05 13:52:41;;;;;;;;;;;;;;;;;;5036938;28;19916;-69
2022/07/05 13:55:07;;;;;;;;;;;;;;;;;;5037087;28;19910;-69
2022/07/05 13:57:33;;;;;;;;;;;;;;;;;;5037628;28;19916;-69
2022/07/05 13:59:59;;;;;;;;;;;;;;;;;;5037041;28;19909;-69
2022/07/05 14:02:25;;;;;;;;;;;;;;;;;;5036857;28;19917;-69
2022/07/05 14:04:51;;;;;;;;;;;;;;;;;;5037758;28;19963;-69
2022/07/05 14:07:17;;;;;;;;;;;;;;;;;;5036890;28;20375;-69
2022/07/05 14:09:44;;;;;;;;;;;;;;;;;;5037286;28;19909;-69
2022/07/05 14:12:09;;;;;;;;;;;;;;;;;;5037024;28;20043;-69
2022/07/05 14:14:35;;;;;;;;;;;;;;;;;;5036726;28;19948;-69
2022/07/05 14:17:01;;;;;;;;;;;;;;;;;;5037149;28;19916;-69
2022/07/05 14:19:27;;;;;;;;;;;;;;;;;;5037155;28;19916;-69
2022/07/05 14:21:53;;;;;;;;;;;;;;;;;;5036755;28;19913;-69
2022/07/05 14:24:19;;;;;;;;;;;;;;;;;;5036844;28;19917;-69
2022/07/05 14:26:45;;;;;;;;;;;;;;;;;;5037082;28;19909;-69
2022/07/05 14:29:11;;;;;;;;;;;;;;;;;;5036833;28;20241;-69
2022/07/05 14:31:37;;;;;;;;;;;;;;;;;;5036378;28;19909;-69
2022/07/05 14:34:04;;;;;;;;;;;;;;;;;;5036888;28;19916;-69
2022/07/05 14:36:30;;;;;;;;;;;;;;;;;;5037281;28;19909;-69
2022/07/05 14:38:56;;;;;;;;;;;;;;;;;;5036245;28;20366;-69
2022/07/05 14:41:22;;;;;;;;;;;;;;;;;;5036736;28;19916;-69
2022/07/05 14:43:48;;;;;;;;;;;;;;;;;;5036679;28;19970;-69
2022/07/05 14:46:17;;;;;;;;;;;;;;;;;;5036967;28;19912;-69
2022/07/05 14:48:43;;;;;;;;;;;;;;;;;;5036542;28;19917;-69
2022/07/05 14:51:09;;;;;;;;;;;;;;;;;;5036073;28;19909;-69
2022/07/05 14:53:35;;;;;;;;;;;;;;;;;;5035679;28;19916;-69
2022/07/05 14:56:01;;;;;;;;;;;;;;;;;;5036330;28;19909;-69
2022/07/05 14:58:31;;;;;;;;;;;;;;;;;;5035611;28;19909;-69
2022/07/05 15:00:57;;;;;;;;;;;;;;;;;;5036414;28;19955;-69
2022/07/05 15:03:23;;;;;;;;;;;;;;;;;;5035248;28;19917;-69
2022/07/05 15:05:49;;;;;;;;;;;;;;;;;;5035637;28;19920;-69
2022/07/05 15:08:15;;;;;;;;;;;;;;;;;;5035640;28;19909;-69
2022/07/05 15:10:41;;;;;;;;;;;;;;;;;;5035700;28;19915;-69
2022/07/05 15:13:08;;;;;;;;;;;;;;;;;;5035642;28;19963;-69
2022/07/05 15:15:34;;;;;;;;;;;;;;;;;;5034883;28;19967;-69
2022/07/05 15:18:00;;;;;;;;;;;;;;;;;;5035377;28;19909;-69
2022/07/05 15:20:26;;;;;;;;;;;;;;;;;;5035068;28;19909;-69
2022/07/05 15:22:52;;;;;;;;;;;;;;;;;;5035282;28;19921;-69
2022/07/05 15:25:18;;;;;;;;;;;;;;;;;;5035692;28;19920;-69
2022/07/05 15:27:44;;;;;;;;;;;;;;;;;;5035420;28;20377;-71
2022/07/05 15:30:10;;;;;;;;;;;;;;;;;;5035025;28;19909;-70
2022/07/05 15:32:36;;;;;;;;;;;;;;;;;;5035057;28;19916;-70
2022/07/05 15:35:02;;;;;;;;;;;;;;;;;;5034990;28;20355;-70
2022/07/05 15:37:28;;;;;;;;;;;;;;;;;;5035557;28;20486;-69
2022/07/05 15:39:57;;;;;;;;;;;;;;;;;;5035776;28;20034;-69
2022/07/05 15:42:23;;;;;;;;;;;;;;;;;;5034668;28;19999;-70
2022/07/05 15:44:49;;;;;;;;;;;;;;;;;;5035142;28;19960;-70
2022/07/05 15:47:15;;;;;;;;;;;;;;;;;;5034802;28;19924;-70
2022/07/05 15:49:41;;;;;;;;;;;;;;;;;;5035433;28;19909;-70
2022/07/05 15:52:07;;;;;;;;;;;;;;;;;;5034720;28;19909;-70
2022/07/05 15:54:33;;;;;;;;;;;;;;;;;;5035600;28;20350;-70
2022/07/05 15:56:59;;;;;;;;;;;;;;;;;;5035017;28;20000;-70
2022/07/05 15:59:25;;;;;;;;;;;;;;;;;;5034647;28;19959;-70
2022/07/05 16:01:51;;;;;;;;;;;;;;;;;;5034414;28;19943;-71
2022/07/05 16:04:17;;;;;;;;;;;;;;;;;;5034889;28;19913;-71
2022/07/05 16:06:43;;;;;;;;;;;;;;;;;;5035449;28;19909;-70
2022/07/05 16:09:09;;;;;;;;;;;;;;;;;;5034884;28;20344;-70
2022/07/05 16:11:35;;;;;;;;;;;;;;;;;;5029126;28;19912;-70
2022/07/05 16:14:01;;;;;;;;;;;;;;;;;;5033408;28;19909;-70
2022/07/05 16:16:27;;;;;;;;;;;;;;;;;;5034377;28;19967;-70
2022/07/05 16:18:53;;;;;;;;;;;;;;;;;;5035069;28;19909;-70
2022/07/05 16:21:19;;;;;;;;;;;;;;;;;;5026572;28;19979;-70
2022/07/05 16:23:52;;;;;;;;;;;;;;;;;;5014808;28;19953;-70
2022/07/05 16:26:18;;;;;;;;;;;;;;;;;;5014938;28;19920;-71
2022/07/05 16:28:44;;;;;;;;;;;;;;;;;;5018487;28;20016;-71
2022/07/05 16:31:10;;;;;;;;;;;;;;;;;;5018077;28;19973;-70
2022/07/05 16:33:36;;;;;;;;;;;;;;;;;;5018427;28;19913;-71
2022/07/05 16:36:02;;;;;;;;;;;;;;;;;;5017958;28;19916;-71
2022/07/05 16:38:30;;;;;;;;;;;;;;;;;;5018706;28;20008;-70
2022/07/05 16:40:56;;;;;;;;;;;;;;;;;;5018208;28;19909;-70
2022/07/05 16:43:22;;;;;;;;;;;;;;;;;;5018330;28;20361;-70
2022/07/05 16:45:48;;;;;;;;;;;;;;;;;;5018472;28;19913;-70
2022/07/05 16:48:14;;;;;;;;;;;;;;;;;;5016897;28;19926;-70
2022/07/05 16:50:40;;;;;;;;;;;;;;;;;;5017122;28;19910;-70